sensor_id;sensor_type;location;lat;lon;timestamp;P1;durP1;ratioP1;P2;durP2;ratioP2
52041;SDS011;38052;45.944;13.624;2023-01-13T00:00:44;17.70;;;6.20;;
52041;SDS011;38052;45.944;13.624;2023-01-13T00:03:11;7.82;;;4.78;;
52041;SDS011;38052;45.944;13.624;2023-01-13T00:05:37;11.35;;;5.50;;
52041;SDS011;38052;45.944;13.624;2023-01-13T00:08:04;10.48;;;5.78;;
52041;SDS011;38052;45.944;13.624;2023-01-13T00:10:31;14.15;;;6.40;;
52041;SDS011;38052;45.944;13.624;2023-01-13T00:12:57;9.70;;;5.55;;
52041;SDS011;38052;45.944;13.624;2023-01-13T00:15:23;12.38;;;6.45;;
52041;SDS011;38052;45.944;13.624;2023-01-13T00:17:50;9.70;;;5.60;;
52041;SDS011;38052;45.944;13.624;2023-01-13T00:20:16;8.60;;;5.00;;
52041;SDS011;38052;45.944;13.624;2023-01-13T00:22:43;8.30;;;4.45;;
52041;SDS011;38052;45.944;13.624;2023-01-13T00:25:10;12.20;;;5.90;;
52041;SDS011;38052;45.944;13.624;2023-01-13T00:27:37;16.40;;;9.07;;
52041;SDS011;38052;45.944;13.624;2023-01-13T00:30:04;13.13;;;8.18;;
52041;SDS011;38052;45.944;13.624;2023-01-13T00:32:31;9.68;;;5.95;;
52041;SDS011;38052;45.944;13.624;2023-01-13T00:34:58;12.10;;;6.57;;
52041;SDS011;38052;45.944;13.624;2023-01-13T00:37:24;9.13;;;5.50;;
52041;SDS011;38052;45.944;13.624;2023-01-13T00:39:51;8.80;;;5.55;;
52041;SDS011;38052;45.944;13.624;2023-01-13T00:42:18;10.27;;;5.65;;
52041;SDS011;38052;45.944;13.624;2023-01-13T00:45:03;8.15;;;5.32;;
52041;SDS011;38052;45.944;13.624;2023-01-13T00:47:30;10.05;;;6.57;;
52041;SDS011;38052;45.944;13.624;2023-01-13T00:49:56;12.30;;;6.97;;
52041;SDS011;38052;45.944;13.624;2023-01-13T00:52:23;11.63;;;6.32;;
52041;SDS011;38052;45.944;13.624;2023-01-13T00:54:50;10.85;;;6.88;;
52041;SDS011;38052;45.944;13.624;2023-01-13T00:57:16;12.20;;;7.00;;
52041;SDS011;38052;45.944;13.624;2023-01-13T00:59:42;10.43;;;6.35;;
52041;SDS011;38052;45.944;13.624;2023-01-13T01:02:09;12.07;;;7.53;;
52041;SDS011;38052;45.944;13.624;2023-01-13T01:04:36;13.77;;;8.23;;
52041;SDS011;38052;45.944;13.624;2023-01-13T01:07:02;11.00;;;7.07;;
52041;SDS011;38052;45.944;13.624;2023-01-13T01:09:28;13.77;;;7.75;;
52041;SDS011;38052;45.944;13.624;2023-01-13T01:12:00;14.23;;;7.43;;
52041;SDS011;38052;45.944;13.624;2023-01-13T01:14:26;11.98;;;7.78;;
52041;SDS011;38052;45.944;13.624;2023-01-13T01:16:53;10.80;;;6.07;;
52041;SDS011;38052;45.944;13.624;2023-01-13T01:19:20;12.32;;;7.20;;
52041;SDS011;38052;45.944;13.624;2023-01-13T01:21:46;10.18;;;6.78;;
52041;SDS011;38052;45.944;13.624;2023-01-13T01:24:13;13.93;;;6.95;;
52041;SDS011;38052;45.944;13.624;2023-01-13T01:26:40;10.63;;;7.00;;
52041;SDS011;38052;45.944;13.624;2023-01-13T01:29:07;11.55;;;7.95;;
52041;SDS011;38052;45.944;13.624;2023-01-13T01:31:34;12.10;;;7.22;;
52041;SDS011;38052;45.944;13.624;2023-01-13T01:34:00;9.95;;;6.82;;
52041;SDS011;38052;45.944;13.624;2023-01-13T01:36:27;10.35;;;6.43;;
52041;SDS011;38052;45.944;13.624;2023-01-13T01:38:58;10.25;;;6.40;;
52041;SDS011;38052;45.944;13.624;2023-01-13T01:41:26;12.32;;;7.88;;
52041;SDS011;38052;45.944;13.624;2023-01-13T01:48:59;10.43;;;6.38;;
52041;SDS011;38052;45.944;13.624;2023-01-13T01:51:26;9.93;;;5.95;;
52041;SDS011;38052;45.944;13.624;2023-01-13T01:53:54;10.20;;;5.50;;
52041;SDS011;38052;45.944;13.624;2023-01-13T01:56:21;9.32;;;5.75;;
52041;SDS011;38052;45.944;13.624;2023-01-13T01:58:48;10.88;;;5.72;;
52041;SDS011;38052;45.944;13.624;2023-01-13T02:01:15;10.68;;;6.32;;
52041;SDS011;38052;45.944;13.624;2023-01-13T02:03:43;14.52;;;5.90;;
52041;SDS011;38052;45.944;13.624;2023-01-13T02:06:10;14.13;;;6.38;;
52041;SDS011;38052;45.944;13.624;2023-01-13T02:08:37;7.68;;;4.72;;
52041;SDS011;38052;45.944;13.624;2023-01-13T02:11:03;8.50;;;4.15;;
52041;SDS011;38052;45.944;13.624;2023-01-13T02:13:29;7.63;;;5.15;;
52041;SDS011;38052;45.944;13.624;2023-01-13T02:15:58;8.85;;;4.53;;
52041;SDS011;38052;45.944;13.624;2023-01-13T02:18:37;9.75;;;4.93;;
52041;SDS011;38052;45.944;13.624;2023-01-13T02:32:58;9.30;;;5.05;;
52041;SDS011;38052;45.944;13.624;2023-01-13T02:35:22;9.18;;;4.60;;
52041;SDS011;38052;45.944;13.624;2023-01-13T02:37:49;8.73;;;4.53;;
52041;SDS011;38052;45.944;13.624;2023-01-13T02:40:19;8.25;;;4.90;;
52041;SDS011;38052;45.944;13.624;2023-01-13T02:43:00;7.82;;;4.90;;
52041;SDS011;38052;45.944;13.624;2023-01-13T02:45:54;8.05;;;4.93;;
52041;SDS011;38052;45.944;13.624;2023-01-13T02:48:21;9.18;;;5.05;;
52041;SDS011;38052;45.944;13.624;2023-01-13T02:50:50;9.73;;;5.38;;
52041;SDS011;38052;45.944;13.624;2023-01-13T02:53:26;8.13;;;4.87;;
52041;SDS011;38052;45.944;13.624;2023-01-13T02:55:54;7.55;;;4.80;;
52041;SDS011;38052;45.944;13.624;2023-01-13T02:58:22;7.53;;;4.53;;
52041;SDS011;38052;45.944;13.624;2023-01-13T03:00:49;11.40;;;5.72;;
52041;SDS011;38052;45.944;13.624;2023-01-13T03:03:15;6.88;;;4.47;;
52041;SDS011;38052;45.944;13.624;2023-01-13T03:05:42;7.05;;;4.45;;
52041;SDS011;38052;45.944;13.624;2023-01-13T03:08:25;7.15;;;3.88;;
52041;SDS011;38052;45.944;13.624;2023-01-13T03:11:05;9.63;;;4.93;;
52041;SDS011;38052;45.944;13.624;2023-01-13T03:18:42;9.25;;;3.95;;
52041;SDS011;38052;45.944;13.624;2023-01-13T03:23:40;7.22;;;3.92;;
52041;SDS011;38052;45.944;13.624;2023-01-13T03:26:15;8.20;;;4.32;;
52041;SDS011;38052;45.944;13.624;2023-01-13T03:28:45;6.57;;;4.07;;
52041;SDS011;38052;45.944;13.624;2023-01-13T03:31:19;7.70;;;4.10;;
52041;SDS011;38052;45.944;13.624;2023-01-13T03:33:54;8.93;;;4.60;;
52041;SDS011;38052;45.944;13.624;2023-01-13T03:36:22;6.03;;;3.95;;
52041;SDS011;38052;45.944;13.624;2023-01-13T03:38:51;6.05;;;3.78;;
52041;SDS011;38052;45.944;13.624;2023-01-13T03:41:21;7.88;;;3.67;;
52041;SDS011;38052;45.944;13.624;2023-01-13T03:43:52;7.53;;;4.05;;
52041;SDS011;38052;45.944;13.624;2023-01-13T03:49:31;7.70;;;3.17;;
52041;SDS011;38052;45.944;13.624;2023-01-13T03:52:01;7.03;;;3.92;;
52041;SDS011;38052;45.944;13.624;2023-01-13T03:54:29;14.75;;;4.53;;
52041;SDS011;38052;45.944;13.624;2023-01-13T03:57:04;6.88;;;3.92;;
52041;SDS011;38052;45.944;13.624;2023-01-13T03:59:33;11.15;;;4.22;;
52041;SDS011;38052;45.944;13.624;2023-01-13T04:02:02;6.40;;;3.80;;
52041;SDS011;38052;45.944;13.624;2023-01-13T04:04:31;7.75;;;4.38;;
52041;SDS011;38052;45.944;13.624;2023-01-13T04:07:08;8.70;;;3.70;;
52041;SDS011;38052;45.944;13.624;2023-01-13T04:12:08;8.38;;;3.75;;
52041;SDS011;38052;45.944;13.624;2023-01-13T04:14:36;7.38;;;4.00;;
52041;SDS011;38052;45.944;13.624;2023-01-13T04:17:03;8.40;;;3.67;;
52041;SDS011;38052;45.944;13.624;2023-01-13T04:19:29;8.90;;;3.55;;
52041;SDS011;38052;45.944;13.624;2023-01-13T04:21:57;9.98;;;3.88;;
52041;SDS011;38052;45.944;13.624;2023-01-13T04:24:23;7.38;;;3.42;;
52041;SDS011;38052;45.944;13.624;2023-01-13T04:26:50;8.40;;;2.88;;
52041;SDS011;38052;45.944;13.624;2023-01-13T04:29:16;7.60;;;3.70;;
52041;SDS011;38052;45.944;13.624;2023-01-13T04:31:43;6.03;;;2.72;;
52041;SDS011;38052;45.944;13.624;2023-01-13T04:34:10;6.32;;;2.97;;
52041;SDS011;38052;45.944;13.624;2023-01-13T04:36:36;6.05;;;4.13;;
52041;SDS011;38052;45.944;13.624;2023-01-13T04:39:03;6.13;;;2.72;;
52041;SDS011;38052;45.944;13.624;2023-01-13T04:41:29;8.52;;;3.60;;
52041;SDS011;38052;45.944;13.624;2023-01-13T04:44:14;7.22;;;3.20;;
52041;SDS011;38052;45.944;13.624;2023-01-13T04:46:41;6.88;;;3.28;;
52041;SDS011;38052;45.944;13.624;2023-01-13T04:49:08;8.77;;;2.70;;
52041;SDS011;38052;45.944;13.624;2023-01-13T04:51:34;6.18;;;2.72;;
52041;SDS011;38052;45.944;13.624;2023-01-13T04:54:00;6.80;;;3.50;;
52041;SDS011;38052;45.944;13.624;2023-01-13T04:56:27;7.68;;;3.72;;
52041;SDS011;38052;45.944;13.624;2023-01-13T04:58:53;8.55;;;3.50;;
52041;SDS011;38052;45.944;13.624;2023-01-13T05:01:20;11.48;;;3.90;;
52041;SDS011;38052;45.944;13.624;2023-01-13T05:03:46;5.50;;;2.92;;
52041;SDS011;38052;45.944;13.624;2023-01-13T05:06:12;11.52;;;3.95;;
52041;SDS011;38052;45.944;13.624;2023-01-13T05:08:39;8.35;;;3.42;;
52041;SDS011;38052;45.944;13.624;2023-01-13T05:11:05;9.80;;;3.67;;
52041;SDS011;38052;45.944;13.624;2023-01-13T05:13:51;10.00;;;3.22;;
52041;SDS011;38052;45.944;13.624;2023-01-13T05:16:37;6.50;;;3.40;;
52041;SDS011;38052;45.944;13.624;2023-01-13T05:19:22;6.55;;;3.65;;
52041;SDS011;38052;45.944;13.624;2023-01-13T05:21:49;6.88;;;3.35;;
52041;SDS011;38052;45.944;13.624;2023-01-13T05:24:33;7.18;;;3.78;;
52041;SDS011;38052;45.944;13.624;2023-01-13T05:27:18;6.53;;;2.67;;
52041;SDS011;38052;45.944;13.624;2023-01-13T05:29:44;6.45;;;3.45;;
52041;SDS011;38052;45.944;13.624;2023-01-13T05:32:12;8.05;;;3.13;;
52041;SDS011;38052;45.944;13.624;2023-01-13T05:34:38;8.32;;;3.50;;
52041;SDS011;38052;45.944;13.624;2023-01-13T05:37:04;8.50;;;3.90;;
52041;SDS011;38052;45.944;13.624;2023-01-13T05:39:32;12.80;;;3.55;;
52041;SDS011;38052;45.944;13.624;2023-01-13T05:42:18;10.65;;;3.58;;
52041;SDS011;38052;45.944;13.624;2023-01-13T05:45:03;7.72;;;3.70;;
52041;SDS011;38052;45.944;13.624;2023-01-13T05:47:30;9.73;;;4.90;;
52041;SDS011;38052;45.944;13.624;2023-01-13T05:49:57;7.45;;;3.85;;
52041;SDS011;38052;45.944;13.624;2023-01-13T05:52:23;9.63;;;4.05;;
52041;SDS011;38052;45.944;13.624;2023-01-13T05:54:51;9.25;;;3.63;;
52041;SDS011;38052;45.944;13.624;2023-01-13T05:57:17;7.80;;;3.72;;
52041;SDS011;38052;45.944;13.624;2023-01-13T05:59:44;9.25;;;3.45;;
52041;SDS011;38052;45.944;13.624;2023-01-13T06:02:11;5.13;;;3.00;;
52041;SDS011;38052;45.944;13.624;2023-01-13T06:04:38;7.28;;;3.53;;
52041;SDS011;38052;45.944;13.624;2023-01-13T06:07:05;7.03;;;3.88;;
52041;SDS011;38052;45.944;13.624;2023-01-13T06:09:32;9.73;;;3.83;;
52041;SDS011;38052;45.944;13.624;2023-01-13T06:11:58;9.88;;;4.53;;
52041;SDS011;38052;45.944;13.624;2023-01-13T06:14:25;6.75;;;4.00;;
52041;SDS011;38052;45.944;13.624;2023-01-13T06:17:05;10.25;;;4.10;;
52041;SDS011;38052;45.944;13.624;2023-01-13T06:19:31;7.53;;;3.50;;
52041;SDS011;38052;45.944;13.624;2023-01-13T06:21:57;8.65;;;4.28;;
52041;SDS011;38052;45.944;13.624;2023-01-13T06:24:24;8.75;;;4.07;;
52041;SDS011;38052;45.944;13.624;2023-01-13T06:26:50;9.75;;;4.03;;
52041;SDS011;38052;45.944;13.624;2023-01-13T06:29:16;10.23;;;4.00;;
52041;SDS011;38052;45.944;13.624;2023-01-13T06:31:43;8.48;;;3.42;;
52041;SDS011;38052;45.944;13.624;2023-01-13T06:34:10;11.23;;;3.55;;
52041;SDS011;38052;45.944;13.624;2023-01-13T06:36:42;10.75;;;3.97;;
52041;SDS011;38052;45.944;13.624;2023-01-13T06:39:10;7.57;;;3.50;;
52041;SDS011;38052;45.944;13.624;2023-01-13T06:41:39;10.60;;;3.53;;
52041;SDS011;38052;45.944;13.624;2023-01-13T06:44:23;8.38;;;4.80;;
52041;SDS011;38052;45.944;13.624;2023-01-13T06:46:52;17.60;;;7.35;;
52041;SDS011;38052;45.944;13.624;2023-01-13T06:49:19;14.23;;;7.80;;
52041;SDS011;38052;45.944;13.624;2023-01-13T06:51:46;14.25;;;8.50;;
52041;SDS011;38052;45.944;13.624;2023-01-13T06:54:13;16.05;;;7.68;;
52041;SDS011;38052;45.944;13.624;2023-01-13T06:56:40;12.48;;;7.78;;
52041;SDS011;38052;45.944;13.624;2023-01-13T06:59:06;11.48;;;6.90;;
52041;SDS011;38052;45.944;13.624;2023-01-13T07:01:33;12.00;;;6.63;;
52041;SDS011;38052;45.944;13.624;2023-01-13T07:04:00;14.10;;;6.00;;
52041;SDS011;38052;45.944;13.624;2023-01-13T07:06:27;10.88;;;6.30;;
52041;SDS011;38052;45.944;13.624;2023-01-13T07:08:53;9.70;;;6.32;;
52041;SDS011;38052;45.944;13.624;2023-01-13T07:11:19;15.30;;;7.57;;
52041;SDS011;38052;45.944;13.624;2023-01-13T07:13:46;13.40;;;6.18;;
52041;SDS011;38052;45.944;13.624;2023-01-13T07:16:31;11.38;;;5.65;;
52041;SDS011;38052;45.944;13.624;2023-01-13T07:18:57;9.82;;;5.82;;
52041;SDS011;38052;45.944;13.624;2023-01-13T07:21:25;7.95;;;5.63;;
52041;SDS011;38052;45.944;13.624;2023-01-13T07:23:51;11.85;;;6.50;;
52041;SDS011;38052;45.944;13.624;2023-01-13T07:26:18;12.52;;;5.90;;
52041;SDS011;38052;45.944;13.624;2023-01-13T07:28:44;11.77;;;6.78;;
52041;SDS011;38052;45.944;13.624;2023-01-13T07:31:15;11.00;;;6.20;;
52041;SDS011;38052;45.944;13.624;2023-01-13T07:33:42;16.63;;;6.50;;
52041;SDS011;38052;45.944;13.624;2023-01-13T07:36:08;12.00;;;6.78;;
52041;SDS011;38052;45.944;13.624;2023-01-13T07:38:35;10.00;;;5.63;;
52041;SDS011;38052;45.944;13.624;2023-01-13T07:41:03;13.13;;;6.35;;
52041;SDS011;38052;45.944;13.624;2023-01-13T07:43:48;9.57;;;5.72;;
52041;SDS011;38052;45.944;13.624;2023-01-13T07:46:16;9.30;;;5.78;;
52041;SDS011;38052;45.944;13.624;2023-01-13T07:48:42;10.43;;;5.90;;
52041;SDS011;38052;45.944;13.624;2023-01-13T07:51:10;14.48;;;6.68;;
52041;SDS011;38052;45.944;13.624;2023-01-13T07:53:37;14.13;;;5.68;;
52041;SDS011;38052;45.944;13.624;2023-01-13T07:56:04;8.90;;;4.47;;
52041;SDS011;38052;45.944;13.624;2023-01-13T07:58:34;13.63;;;5.45;;
52041;SDS011;38052;45.944;13.624;2023-01-13T08:01:06;10.48;;;5.13;;
52041;SDS011;38052;45.944;13.624;2023-01-13T08:03:32;10.40;;;4.40;;
52041;SDS011;38052;45.944;13.624;2023-01-13T08:06:00;14.77;;;9.63;;
52041;SDS011;38052;45.944;13.624;2023-01-13T08:08:26;10.95;;;7.43;;
52041;SDS011;38052;45.944;13.624;2023-01-13T08:10:53;10.13;;;6.30;;
52041;SDS011;38052;45.944;13.624;2023-01-13T08:13:20;10.00;;;6.18;;
52041;SDS011;38052;45.944;13.624;2023-01-13T08:15:48;10.95;;;5.80;;
52041;SDS011;38052;45.944;13.624;2023-01-13T08:18:15;8.90;;;5.63;;
52041;SDS011;38052;45.944;13.624;2023-01-13T08:20:45;15.85;;;8.93;;
52041;SDS011;38052;45.944;13.624;2023-01-13T08:23:13;14.93;;;7.82;;
52041;SDS011;38052;45.944;13.624;2023-01-13T08:25:40;18.83;;;9.25;;
52041;SDS011;38052;45.944;13.624;2023-01-13T08:28:06;19.27;;;10.20;;
52041;SDS011;38052;45.944;13.624;2023-01-13T08:30:32;19.25;;;9.50;;
52041;SDS011;38052;45.944;13.624;2023-01-13T08:32:59;14.80;;;8.85;;
52041;SDS011;38052;45.944;13.624;2023-01-13T08:35:25;10.80;;;8.75;;
52041;SDS011;38052;45.944;13.624;2023-01-13T08:37:52;17.08;;;8.55;;
52041;SDS011;38052;45.944;13.624;2023-01-13T08:40:18;12.07;;;7.38;;
52041;SDS011;38052;45.944;13.624;2023-01-13T08:42:45;14.75;;;8.32;;
52041;SDS011;38052;45.944;13.624;2023-01-13T08:45:12;14.52;;;8.05;;
52041;SDS011;38052;45.944;13.624;2023-01-13T08:47:39;17.30;;;9.02;;
52041;SDS011;38052;45.944;13.624;2023-01-13T08:50:05;18.42;;;8.63;;
52041;SDS011;38052;45.944;13.624;2023-01-13T08:52:32;12.07;;;8.00;;
52041;SDS011;38052;45.944;13.624;2023-01-13T08:54:59;14.02;;;8.65;;
52041;SDS011;38052;45.944;13.624;2023-01-13T08:57:25;18.70;;;6.68;;
52041;SDS011;38052;45.944;13.624;2023-01-13T08:59:52;15.60;;;8.02;;
52041;SDS011;38052;45.944;13.624;2023-01-13T09:02:19;15.45;;;7.60;;
52041;SDS011;38052;45.944;13.624;2023-01-13T09:04:46;12.57;;;7.93;;
52041;SDS011;38052;45.944;13.624;2023-01-13T09:07:13;11.25;;;6.72;;
52041;SDS011;38052;45.944;13.624;2023-01-13T09:09:40;12.13;;;7.28;;
52041;SDS011;38052;45.944;13.624;2023-01-13T09:12:06;16.92;;;8.30;;
52041;SDS011;38052;45.944;13.624;2023-01-13T09:14:54;11.90;;;7.00;;
52041;SDS011;38052;45.944;13.624;2023-01-13T09:17:20;20.75;;;7.95;;
52041;SDS011;38052;45.944;13.624;2023-01-13T09:19:47;13.95;;;7.35;;
52041;SDS011;38052;45.944;13.624;2023-01-13T09:22:15;18.80;;;8.63;;
52041;SDS011;38052;45.944;13.624;2023-01-13T09:24:41;15.82;;;7.35;;
52041;SDS011;38052;45.944;13.624;2023-01-13T09:27:09;13.05;;;6.60;;
52041;SDS011;38052;45.944;13.624;2023-01-13T09:29:35;24.63;;;7.05;;
52041;SDS011;38052;45.944;13.624;2023-01-13T09:32:02;19.75;;;9.00;;
52041;SDS011;38052;45.944;13.624;2023-01-13T09:34:28;16.45;;;8.13;;
52041;SDS011;38052;45.944;13.624;2023-01-13T09:37:12;18.15;;;7.07;;
52041;SDS011;38052;45.944;13.624;2023-01-13T09:39:38;13.18;;;7.20;;
52041;SDS011;38052;45.944;13.624;2023-01-13T09:47:32;18.33;;;7.50;;
52041;SDS011;38052;45.944;13.624;2023-01-13T09:50:08;15.25;;;6.40;;
52041;SDS011;38052;45.944;13.624;2023-01-13T09:52:41;10.00;;;5.82;;
52041;SDS011;38052;45.944;13.624;2023-01-13T09:55:09;12.90;;;7.05;;
52041;SDS011;38052;45.944;13.624;2023-01-13T09:57:36;8.32;;;5.40;;
52041;SDS011;38052;45.944;13.624;2023-01-13T10:00:14;11.15;;;6.45;;
52041;SDS011;38052;45.944;13.624;2023-01-13T10:02:53;9.93;;;6.05;;
52041;SDS011;38052;45.944;13.624;2023-01-13T10:05:43;9.27;;;6.57;;
52041;SDS011;38052;45.944;13.624;2023-01-13T10:08:50;16.88;;;6.60;;
52041;SDS011;38052;45.944;13.624;2023-01-13T10:11:02;11.05;;;6.10;;
52041;SDS011;38052;45.944;13.624;2023-01-13T10:13:55;13.30;;;6.72;;
52041;SDS011;38052;45.944;13.624;2023-01-13T10:16:25;10.70;;;6.22;;
52041;SDS011;38052;45.944;13.624;2023-01-13T10:19:02;9.98;;;5.25;;
52041;SDS011;38052;45.944;13.624;2023-01-13T10:24:06;11.93;;;6.38;;
52041;SDS011;38052;45.944;13.624;2023-01-13T10:29:21;8.48;;;5.80;;
52041;SDS011;38052;45.944;13.624;2023-01-13T10:31:49;11.27;;;6.60;;
52041;SDS011;38052;45.944;13.624;2023-01-13T10:34:15;7.90;;;5.60;;
52041;SDS011;38052;45.944;13.624;2023-01-13T10:36:45;8.80;;;5.30;;
52041;SDS011;38052;45.944;13.624;2023-01-13T10:39:20;8.00;;;4.75;;
52041;SDS011;38052;45.944;13.624;2023-01-13T10:41:47;8.10;;;4.93;;
52041;SDS011;38052;45.944;13.624;2023-01-13T10:44:14;9.55;;;5.35;;
52041;SDS011;38052;45.944;13.624;2023-01-13T10:46:54;10.82;;;5.28;;
52041;SDS011;38052;45.944;13.624;2023-01-13T10:51:53;7.57;;;3.80;;
52041;SDS011;38052;45.944;13.624;2023-01-13T10:54:20;27.52;;;6.07;;
52041;SDS011;38052;45.944;13.624;2023-01-13T10:56:47;7.80;;;4.20;;
52041;SDS011;38052;45.944;13.624;2023-01-13T10:59:21;12.38;;;5.70;;
52041;SDS011;38052;45.944;13.624;2023-01-13T11:04:36;13.35;;;5.63;;
52041;SDS011;38052;45.944;13.624;2023-01-13T11:07:04;10.77;;;4.60;;
52041;SDS011;38052;45.944;13.624;2023-01-13T11:09:31;9.13;;;4.78;;
52041;SDS011;38052;45.944;13.624;2023-01-13T11:11:58;10.80;;;5.82;;
52041;SDS011;38052;45.944;13.624;2023-01-13T11:14:26;9.32;;;6.18;;
52041;SDS011;38052;45.944;13.624;2023-01-13T11:16:57;13.60;;;6.72;;
52041;SDS011;38052;45.944;13.624;2023-01-13T11:19:26;16.70;;;7.00;;
52041;SDS011;38052;45.944;13.624;2023-01-13T11:26:48;12.55;;;6.75;;
52041;SDS011;38052;45.944;13.624;2023-01-13T11:29:19;10.55;;;7.22;;
52041;SDS011;38052;45.944;13.624;2023-01-13T11:31:51;9.98;;;5.97;;
52041;SDS011;38052;45.944;13.624;2023-01-13T11:36:49;12.52;;;6.15;;
52041;SDS011;38052;45.944;13.624;2023-01-13T11:42:01;15.65;;;6.35;;
52041;SDS011;38052;45.944;13.624;2023-01-13T11:47:14;17.40;;;7.50;;
52041;SDS011;38052;45.944;13.624;2023-01-13T11:49:42;9.88;;;7.60;;
52041;SDS011;38052;45.944;13.624;2023-01-13T11:54:54;13.13;;;6.90;;
52041;SDS011;38052;45.944;13.624;2023-01-13T12:05:12;12.02;;;6.43;;
52041;SDS011;38052;45.944;13.624;2023-01-13T12:12:52;17.42;;;10.85;;
52041;SDS011;38052;45.944;13.624;2023-01-13T12:15:25;17.50;;;7.90;;
52041;SDS011;38052;45.944;13.624;2023-01-13T12:22:46;12.73;;;7.05;;
52041;SDS011;38052;45.944;13.624;2023-01-13T12:25:19;14.05;;;7.82;;
52041;SDS011;38052;45.944;13.624;2023-01-13T12:27:48;12.57;;;6.90;;
52041;SDS011;38052;45.944;13.624;2023-01-13T12:30:24;13.38;;;7.47;;
52041;SDS011;38052;45.944;13.624;2023-01-13T12:32:52;18.63;;;9.02;;
52041;SDS011;38052;45.944;13.624;2023-01-13T12:37:58;16.45;;;9.80;;
52041;SDS011;38052;45.944;13.624;2023-01-13T12:40:44;16.17;;;9.35;;
52041;SDS011;38052;45.944;13.624;2023-01-13T12:43:16;17.70;;;9.18;;
52041;SDS011;38052;45.944;13.624;2023-01-13T12:51:23;13.45;;;7.53;;
52041;SDS011;38052;45.944;13.624;2023-01-13T12:53:50;9.90;;;6.78;;
52041;SDS011;38052;45.944;13.624;2023-01-13T13:01:40;12.85;;;6.78;;
52041;SDS011;38052;45.944;13.624;2023-01-13T13:04:07;15.45;;;7.32;;
52041;SDS011;38052;45.944;13.624;2023-01-13T13:06:35;11.20;;;7.38;;
52041;SDS011;38052;45.944;13.624;2023-01-13T13:09:03;13.68;;;6.45;;
52041;SDS011;38052;45.944;13.624;2023-01-13T13:15:03;19.90;;;7.28;;
52041;SDS011;38052;45.944;13.624;2023-01-13T13:19:50;18.08;;;8.55;;
52041;SDS011;38052;45.944;13.624;2023-01-13T13:22:18;16.77;;;9.82;;
52041;SDS011;38052;45.944;13.624;2023-01-13T13:27:25;17.17;;;9.52;;
52041;SDS011;38052;45.944;13.624;2023-01-13T13:35:24;19.02;;;9.77;;
52041;SDS011;38052;45.944;13.624;2023-01-13T13:37:57;20.38;;;12.45;;
52041;SDS011;38052;45.944;13.624;2023-01-13T13:40:43;20.02;;;11.93;;
52041;SDS011;38052;45.944;13.624;2023-01-13T13:43:42;20.38;;;12.77;;
52041;SDS011;38052;45.944;13.624;2023-01-13T13:46:31;24.10;;;12.85;;
52041;SDS011;38052;45.944;13.624;2023-01-13T13:51:40;21.60;;;14.18;;
52041;SDS011;38052;45.944;13.624;2023-01-13T13:54:12;17.25;;;12.32;;
52041;SDS011;38052;45.944;13.624;2023-01-13T13:56:41;18.80;;;12.10;;
52041;SDS011;38052;45.944;13.624;2023-01-13T13:59:09;28.77;;;12.75;;
52041;SDS011;38052;45.944;13.624;2023-01-13T14:01:37;16.25;;;11.73;;
52041;SDS011;38052;45.944;13.624;2023-01-13T14:04:05;26.33;;;11.98;;
52041;SDS011;38052;45.944;13.624;2023-01-13T14:06:32;22.67;;;12.93;;
52041;SDS011;38052;45.944;13.624;2023-01-13T14:08:59;19.80;;;12.02;;
52041;SDS011;38052;45.944;13.624;2023-01-13T14:11:28;18.77;;;12.93;;
52041;SDS011;38052;45.944;13.624;2023-01-13T14:14:02;24.73;;;15.40;;
52041;SDS011;38052;45.944;13.624;2023-01-13T14:16:30;20.38;;;14.15;;
52041;SDS011;38052;45.944;13.624;2023-01-13T14:18:56;25.17;;;14.15;;
52041;SDS011;38052;45.944;13.624;2023-01-13T14:21:28;24.52;;;16.45;;
52041;SDS011;38052;45.944;13.624;2023-01-13T14:23:57;33.90;;;16.58;;
52041;SDS011;38052;45.944;13.624;2023-01-13T14:26:26;42.58;;;25.08;;
52041;SDS011;38052;45.944;13.624;2023-01-13T14:28:53;24.85;;;16.48;;
52041;SDS011;38052;45.944;13.624;2023-01-13T14:31:20;27.38;;;15.18;;
52041;SDS011;38052;45.944;13.624;2023-01-13T14:33:51;23.70;;;14.75;;
52041;SDS011;38052;45.944;13.624;2023-01-13T14:36:19;27.90;;;14.68;;
52041;SDS011;38052;45.944;13.624;2023-01-13T14:39:23;25.80;;;15.95;;
52041;SDS011;38052;45.944;13.624;2023-01-13T14:44:28;28.80;;;18.60;;
52041;SDS011;38052;45.944;13.624;2023-01-13T14:47:00;28.20;;;15.20;;
52041;SDS011;38052;45.944;13.624;2023-01-13T14:52:15;21.77;;;13.05;;
52041;SDS011;38052;45.944;13.624;2023-01-13T14:54:45;28.00;;;11.95;;
52041;SDS011;38052;45.944;13.624;2023-01-13T14:57:13;19.67;;;10.57;;
52041;SDS011;38052;45.944;13.624;2023-01-13T14:59:41;17.05;;;10.15;;
52041;SDS011;38052;45.944;13.624;2023-01-13T15:04:53;21.75;;;11.20;;
52041;SDS011;38052;45.944;13.624;2023-01-13T15:07:23;20.08;;;11.95;;
52041;SDS011;38052;45.944;13.624;2023-01-13T15:10:00;21.27;;;12.43;;
52041;SDS011;38052;45.944;13.624;2023-01-13T15:12:31;22.25;;;12.00;;
52041;SDS011;38052;45.944;13.624;2023-01-13T15:14:59;19.02;;;11.38;;
52041;SDS011;38052;45.944;13.624;2023-01-13T15:17:27;25.50;;;13.43;;
52041;SDS011;38052;45.944;13.624;2023-01-13T15:19:53;19.15;;;13.00;;
52041;SDS011;38052;45.944;13.624;2023-01-13T15:22:20;29.05;;;16.63;;
52041;SDS011;38052;45.944;13.624;2023-01-13T15:24:46;23.67;;;13.43;;
52041;SDS011;38052;45.944;13.624;2023-01-13T15:27:16;25.25;;;12.70;;
52041;SDS011;38052;45.944;13.624;2023-01-13T15:29:43;20.65;;;10.77;;
52041;SDS011;38052;45.944;13.624;2023-01-13T15:32:19;27.20;;;11.10;;
52041;SDS011;38052;45.944;13.624;2023-01-13T15:34:46;22.02;;;10.32;;
52041;SDS011;38052;45.944;13.624;2023-01-13T15:37:13;32.38;;;12.07;;
52041;SDS011;38052;45.944;13.624;2023-01-13T15:39:41;12.65;;;7.50;;
52041;SDS011;38052;45.944;13.624;2023-01-13T15:42:09;19.10;;;8.68;;
52041;SDS011;38052;45.944;13.624;2023-01-13T15:44:55;13.10;;;7.07;;
52041;SDS011;38052;45.944;13.624;2023-01-13T15:47:39;13.43;;;7.50;;
52041;SDS011;38052;45.944;13.624;2023-01-13T15:50:12;15.25;;;7.72;;
52041;SDS011;38052;45.944;13.624;2023-01-13T15:52:38;14.25;;;7.60;;
52041;SDS011;38052;45.944;13.624;2023-01-13T15:55:04;14.55;;;7.40;;
52041;SDS011;38052;45.944;13.624;2023-01-13T15:57:32;12.48;;;7.25;;
52041;SDS011;38052;45.944;13.624;2023-01-13T16:00:00;16.70;;;10.30;;
52041;SDS011;38052;45.944;13.624;2023-01-13T16:02:28;25.35;;;13.30;;
52041;SDS011;38052;45.944;13.624;2023-01-13T16:04:55;21.73;;;12.32;;
52041;SDS011;38052;45.944;13.624;2023-01-13T16:07:22;17.63;;;10.40;;
52041;SDS011;38052;45.944;13.624;2023-01-13T16:09:49;20.90;;;10.35;;
52041;SDS011;38052;45.944;13.624;2023-01-13T16:12:15;23.70;;;13.13;;
52041;SDS011;38052;45.944;13.624;2023-01-13T16:14:42;30.83;;;17.02;;
52041;SDS011;38052;45.944;13.624;2023-01-13T16:17:15;30.63;;;17.63;;
52041;SDS011;38052;45.944;13.624;2023-01-13T16:19:42;23.40;;;13.57;;
52041;SDS011;38052;45.944;13.624;2023-01-13T16:22:13;23.83;;;14.45;;
52041;SDS011;38052;45.944;13.624;2023-01-13T16:24:39;25.83;;;17.83;;
52041;SDS011;38052;45.944;13.624;2023-01-13T16:27:13;34.58;;;17.23;;
52041;SDS011;38052;45.944;13.624;2023-01-13T16:29:39;25.67;;;15.85;;
52041;SDS011;38052;45.944;13.624;2023-01-13T16:32:05;27.23;;;15.05;;
52041;SDS011;38052;45.944;13.624;2023-01-13T16:34:32;27.95;;;16.08;;